Time;durP1;ratioP1;P1;durP2;ratioP2;P2;SDS_P1;SDS_P2;PMS_P1;PMS_P2;Temp;Humidity;BMP_temperature;BMP_pressure;BME280_temperature;BME280_humidity;BME280_pressure;Samples;Min_cycle;Max_cycle;Signal;HPM_P1;HPM_P2
2021/04/24 00:00:12;;;;;;;42.60;24.07;;;;;;;4.29;67.28;99687.95;113600;1200;64413;-80
2021/04/24 00:02:58;;;;;;;39.10;24.20;;;;;;;4.26;67.07;99687.15;113685;1200;64378;-79
2021/04/24 00:05:32;;;;;;;43.07;26.73;;;;;;;4.24;67.02;99684.58;113657;1199;64385;-80
2021/04/24 00:08:07;;;;;;;36.17;22.20;;;;;;;4.22;66.86;99686.39;113703;1199;64380;-78
2021/04/24 00:10:37;;;;;;;35.00;21.33;;;;;;;4.21;66.90;99678.51;113692;1200;64452;-78
2021/04/24 00:13:05;;;;;;;31.80;19.93;;;;;;;4.17;66.85;99677.75;113689;1200;64452;-79
2021/04/24 00:15:32;;;;;;;30.90;19.80;;;;;;;4.15;66.89;99682.20;113644;1200;64353;-81
2021/04/24 00:17:59;;;;;;;29.10;18.70;;;;;;;4.13;66.48;99678.73;113553;1200;64465;-78
2021/04/24 00:20:25;;;;;;;27.93;16.83;;;;;;;4.10;66.36;99684.11;113503;1200;64375;-78
2021/04/24 00:22:53;;;;;;;27.73;16.37;;;;;;;4.09;66.36;99677.12;113488;1199;64510;-78
2021/04/24 00:25:21;;;;;;;23.00;14.97;;;;;;;4.12;66.17;99674.38;113509;1199;64532;-80
2021/04/24 00:27:47;;;;;;;24.07;14.80;;;;;;;4.14;66.15;99672.56;113524;1199;64486;-78
2021/04/24 00:30:16;;;;;;;26.13;16.57;;;;;;;4.16;65.94;99678.64;113504;1199;64385;-78
2021/04/24 00:32:43;;;;;;;23.80;14.77;;;;;;;4.17;66.05;99664.56;113546;1199;64374;-78
2021/04/24 00:35:12;;;;;;;24.93;14.27;;;;;;;4.16;65.77;99676.00;113606;1200;64359;-78
2021/04/24 00:37:38;;;;;;;20.53;13.40;;;;;;;4.14;65.61;99676.06;113656;1199;64423;-78
2021/04/24 00:40:07;;;;;;;25.70;14.60;;;;;;;4.13;65.72;99681.38;113627;1200;64321;-78
2021/04/24 00:42:35;;;;;;;22.80;14.83;;;;;;;4.11;65.73;99676.16;113657;1200;64352;-78
2021/04/24 00:45:04;;;;;;;25.20;14.60;;;;;;;4.09;65.40;99667.42;113777;1200;64550;-80
2021/04/24 00:47:31;;;;;;;24.20;14.10;;;;;;;4.09;65.43;99670.06;113778;1200;64452;-79
2021/04/24 00:49:58;;;;;;;24.25;13.70;;;;;;;4.08;65.39;99672.73;113866;1200;64362;-78
2021/04/24 00:52:24;;;;;;;23.87;14.00;;;;;;;4.05;65.38;99678.09;113780;1200;64532;-79
2021/04/24 00:54:51;;;;;;;23.65;13.10;;;;;;;4.03;65.43;99682.55;113706;1200;64481;-80
2021/04/24 00:57:20;;;;;;;23.75;13.85;;;;;;;4.04;65.63;99684.30;113559;1200;64394;-79
2021/04/24 00:59:48;;;;;;;26.07;13.03;;;;;;;4.05;65.47;99680.73;113525;1199;64385;-78
2021/04/24 01:02:15;;;;;;;19.73;12.67;;;;;;;4.07;65.29;99671.02;113545;1200;64458;-78
2021/04/24 01:04:43;;;;;;;19.77;12.07;;;;;;;4.08;65.47;99672.73;113497;1200;64468;-79
2021/04/24 01:07:10;;;;;;;22.87;12.70;;;;;;;4.09;65.31;99674.48;113607;1200;64298;-79
2021/04/24 01:09:36;;;;;;;23.33;14.20;;;;;;;4.09;65.42;99670.06;113588;1199;64428;-78
2021/04/24 01:12:03;;;;;;;19.67;12.67;;;;;;;4.12;65.30;99674.38;113600;1200;64375;-79
2021/04/24 01:14:30;;;;;;;21.20;12.25;;;;;;;4.11;65.16;99670.03;113594;1199;64588;-79
2021/04/24 01:16:57;;;;;;;18.37;12.70;;;;;;;4.12;65.39;99675.23;113620;1200;64449;-79
2021/04/24 01:19:25;;;;;;;20.60;13.80;;;;;;;4.11;65.27;99662.97;113642;1200;64372;-79
2021/04/24 01:22:02;;;;;;;22.80;13.53;;;;;;;4.14;65.03;99667.30;113701;1200;64365;-79
2021/04/24 01:24:28;;;;;;;19.03;12.60;;;;;;;4.15;65.23;99667.23;113638;1200;64512;-79
2021/04/24 01:26:55;;;;;;;18.87;10.70;;;;;;;4.16;65.10;99661.06;113463;1200;64455;-78
2021/04/24 01:29:22;;;;;;;20.93;12.23;;;;;;;4.21;65.03;99673.23;113581;1200;64419;-78
2021/04/24 01:31:48;;;;;;;20.73;12.60;;;;;;;4.24;64.95;99662.58;113595;1199;64301;-79
2021/04/24 01:34:15;;;;;;;19.47;11.80;;;;;;;4.26;64.92;99666.91;113636;1200;64346;-80
2021/04/24 01:36:42;;;;;;;18.30;11.45;;;;;;;4.27;65.01;99660.73;113472;1199;64473;-79
2021/04/24 01:39:09;;;;;;;18.75;10.85;;;;;;;4.28;65.01;99653.67;113519;1200;64516;-79
2021/04/24 01:41:35;;;;;;;23.97;13.53;;;;;;;4.29;64.75;99666.84;113479;1200;64355;-79
2021/04/24 01:44:03;;;;;;;20.07;11.43;;;;;;;4.28;64.77;99658.95;113488;1199;64493;-79
2021/04/24 01:46:29;;;;;;;22.77;12.27;;;;;;;4.28;64.72;99658.95;113480;1200;64439;-79
2021/04/24 01:48:56;;;;;;;19.05;10.70;;;;;;;4.28;64.56;99649.26;113513;1200;64427;-79
2021/04/24 01:51:23;;;;;;;20.87;12.00;;;;;;;4.29;64.70;99648.37;113475;1200;64756;-79
2021/04/24 01:53:53;;;;;;;19.13;11.73;;;;;;;4.30;64.88;99646.59;113512;1199;64448;-79
2021/04/24 01:56:20;;;;;;;28.30;15.10;;;;;;;4.31;64.81;99649.16;113490;1200;64436;-78
2021/04/24 01:58:48;;;;;;;19.90;13.77;;;;;;;4.33;64.86;99647.34;113569;1199;64394;-78
2021/04/24 02:01:14;;;;;;;22.15;11.30;;;;;;;4.36;64.98;99635.83;113510;1199;64362;-80
2021/04/24 02:03:41;;;;;;;21.03;12.33;;;;;;;4.36;64.81;99634.05;113513;1200;64381;-78
2021/04/24 02:06:08;;;;;;;20.20;10.93;;;;;;;4.38;64.64;99623.46;113617;1200;64353;-78
2021/04/24 02:08:41;;;;;;;15.85;10.35;;;;;;;4.39;64.74;99641.86;113534;1200;64311;-78
2021/04/24 02:11:09;;;;;;;18.17;11.37;;;;;;;4.38;64.68;99628.73;113523;1199;64331;-78
2021/04/24 02:13:40;;;;;;;22.90;11.80;;;;;;;4.38;64.55;99618.18;113508;1199;64330;-78
2021/04/24 02:16:12;;;;;;;26.57;13.80;;;;;;;4.37;64.69;99619.96;113562;1199;64512;-78
2021/04/24 02:18:39;;;;;;;23.60;13.00;;;;;;;4.36;64.56;99609.44;113476;1200;64567;-79
2021/04/24 02:21:06;;;;;;;20.70;10.37;;;;;;;4.36;64.46;99612.94;113503;1199;64410;-79
2021/04/24 02:23:37;;;;;;;22.60;11.50;;;;;;;4.36;64.61;99612.94;113487;1200;64335;-78
2021/04/24 02:26:07;;;;;;;18.53;9.87;;;;;;;4.37;64.70;99622.60;113558;1200;64381;-79
2021/04/24 02:28:34;;;;;;;17.37;10.07;;;;;;;4.37;64.64;99617.33;113490;1199;64400;-79
2021/04/24 02:31:01;;;;;;;18.83;9.90;;;;;;;4.40;64.66;99606.66;113500;1200;64382;-79
2021/04/24 02:33:28;;;;;;;17.13;9.23;;;;;;;4.42;64.77;99627.70;113511;1199;64404;-78
2021/04/24 02:35:58;;;;;;;18.95;10.90;;;;;;;4.45;64.38;99637.30;113486;1199;64373;-78
2021/04/24 02:38:28;;;;;;;14.80;9.05;;;;;;;4.48;64.63;99634.59;113496;1199;64365;-78
2021/04/24 02:40:57;;;;;;;15.80;9.15;;;;;;;4.49;64.49;99641.59;113521;1200;64404;-80
2021/04/24 02:43:25;;;;;;;17.80;10.60;;;;;;;4.49;64.82;99631.89;113631;1200;64452;-78
2021/04/24 02:45:51;;;;;;;15.65;9.20;;;;;;;4.49;65.06;99623.11;113626;1200;64369;-78
2021/04/24 02:48:19;;;;;;;16.53;9.67;;;;;;;4.49;64.91;99623.11;113678;1200;64394;-83
2021/04/24 02:50:47;;;;;;;13.03;9.07;;;;;;;4.50;65.12;99619.55;113621;1199;64400;-79
2021/04/24 02:53:13;;;;;;;14.60;10.10;;;;;;;4.51;65.10;99627.43;113624;1199;64427;-79
2021/04/24 02:55:41;;;;;;;16.10;9.77;;;;;;;4.52;65.30;99621.23;113642;1200;64362;-81
2021/04/24 02:58:07;;;;;;;16.20;9.17;;;;;;;4.56;65.25;99627.30;113684;1200;64413;-79
2021/04/24 03:00:34;;;;;;;18.53;9.13;;;;;;;4.58;65.31;99626.33;113645;1200;64394;-80
2021/04/24 03:03:14;;;;;;;14.97;9.57;;;;;;;4.60;65.25;99636.82;113619;1199;64330;-81
2021/04/24 03:05:43;;;;;;;15.33;9.10;;;;;;;4.62;65.26;99627.94;113493;1200;64455;-78
2021/04/24 03:08:11;;;;;;;13.80;8.80;;;;;;;4.62;65.22;99635.00;113525;1199;64384;-78
2021/04/24 03:10:40;;;;;;;13.23;9.17;;;;;;;4.62;65.19;99629.72;113569;1200;64349;-78
2021/04/24 03:13:08;;;;;;;12.43;9.30;;;;;;;4.62;65.26;99633.22;113527;1199;64359;-78
2021/04/24 03:15:35;;;;;;;15.10;10.50;;;;;;;4.62;65.09;99637.64;113603;1199;64349;-78
2021/04/24 03:18:02;;;;;;;13.00;8.85;;;;;;;4.61;64.89;99642.06;113532;1200;64407;-78
2021/04/24 03:20:31;;;;;;;16.40;8.93;;;;;;;4.61;64.82;99647.34;113638;1199;64410;-78
2021/04/24 03:22:59;;;;;;;14.97;8.47;;;;;;;4.62;64.92;99648.20;113630;1200;64374;-79
2021/04/24 03:25:26;;;;;;;11.80;8.35;;;;;;;4.64;64.89;99643.74;113708;1200;64333;-78
2021/04/24 03:27:54;;;;;;;20.67;11.13;;;;;;;4.65;64.75;99645.46;113605;1200;64394;-79
2021/04/24 03:30:21;;;;;;;26.37;14.43;;;;;;;4.67;64.55;99651.56;113598;1199;64572;-78
2021/04/24 03:32:48;;;;;;;30.60;15.90;;;;;;;4.68;64.67;99655.05;113648;1200;64429;-79
2021/04/24 03:35:15;;;;;;;35.80;16.23;;;;;;;4.68;64.47;99655.05;113557;1200;64371;-79
2021/04/24 03:37:41;;;;;;;30.67;16.80;;;;;;;4.66;64.63;99649.84;113481;1199;64369;-78
2021/04/24 03:40:09;;;;;;;24.10;11.90;;;;;;;4.66;64.44;99651.59;113501;1200;64429;-78
2021/04/24 03:42:36;;;;;;;21.00;12.95;;;;;;;4.64;64.66;99667.50;113542;1200;64462;-79
2021/04/24 03:45:17;;;;;;;17.07;10.97;;;;;;;4.62;64.48;99661.41;113473;1200;64446;-79
2021/04/24 03:47:51;;;;;;;19.97;11.90;;;;;;;4.61;64.43;99671.11;113591;1199;64458;-79
2021/04/24 03:50:20;;;;;;;15.60;11.30;;;;;;;4.60;64.30;99676.42;113539;1200;64404;-79
2021/04/24 03:52:47;;;;;;;18.83;10.70;;;;;;;4.59;64.58;99675.56;113555;1200;65710;-79
2021/04/24 03:55:16;;;;;;;17.30;10.40;;;;;;;4.58;64.50;99671.20;113461;1199;64407;-80
2021/04/24 03:57:44;;;;;;;21.20;10.85;;;;;;;4.59;64.43;99677.34;113514;1200;64404;-79
2021/04/24 04:00:13;;;;;;;18.90;11.07;;;;;;;4.59;64.69;99685.27;113534;1199;64314;-79
2021/04/24 04:02:56;;;;;;;17.10;10.40;;;;;;;4.59;64.75;99679.98;113633;1200;64382;-79
2021/04/24 04:05:27;;;;;;;18.27;10.80;;;;;;;4.59;64.56;99680.84;113680;1200;64302;-80
2021/04/24 04:07:54;;;;;;;16.83;11.33;;;;;;;4.59;64.83;99683.48;113530;1200;64614;-78
2021/04/24 04:10:22;;;;;;;17.40;11.43;;;;;;;4.61;64.74;99680.80;113616;1200;64336;-78
2021/04/24 04:12:49;;;;;;;21.60;11.15;;;;;;;4.62;64.64;99678.09;113500;1200;64378;-78
2021/04/24 04:15:17;;;;;;;23.65;12.05;;;;;;;4.66;64.97;99673.61;113501;1200;64388;-79
2021/04/24 04:18:05;;;;;;;23.35;12.85;;;;;;;4.73;64.77;99684.81;113520;1200;64825;-78
2021/04/24 04:20:32;;;;;;;26.43;13.87;;;;;;;4.80;64.68;99670.52;113538;1200;64538;-78
2021/04/24 04:22:59;;;;;;;27.37;14.13;;;;;;;4.85;64.71;99668.59;113520;1200;64471;-78
2021/04/24 04:25:26;;;;;;;22.27;12.60;;;;;;;4.91;64.84;99680.72;113524;1200;64365;-78
2021/04/24 04:27:53;;;;;;;24.10;14.37;;;;;;;4.96;64.50;99679.66;113621;1200;64378;-79
2021/04/24 04:30:22;;;;;;;22.90;13.97;;;;;;;5.02;64.46;99668.02;113553;1199;64378;-79
2021/04/24 04:32:50;;;;;;;20.73;12.30;;;;;;;5.06;64.44;99667.88;113659;1200;64365;-79
2021/04/24 04:35:18;;;;;;;23.37;13.67;;;;;;;5.10;64.36;99680.97;113594;1200;64516;-80
2021/04/24 04:37:45;;;;;;;20.25;12.40;;;;;;;5.14;64.13;99679.97;113693;1200;64384;-80
2021/04/24 04:40:14;;;;;;;20.75;12.50;;;;;;;5.18;64.35;99674.50;113647;1200;64384;-78
2021/04/24 04:42:41;;;;;;;17.77;12.80;;;;;;;5.22;64.15;99673.50;113544;1200;64352;-78
2021/04/24 04:45:10;;;;;;;25.70;14.63;;;;;;;5.26;64.20;99679.53;113548;1200;64436;-78
2021/04/24 04:47:37;;;;;;;24.37;14.97;;;;;;;5.33;64.19;99681.05;113523;1200;64461;-78
2021/04/24 04:50:06;;;;;;;31.07;17.97;;;;;;;5.41;64.07;99676.36;113516;1199;64375;-78
2021/04/24 04:52:33;;;;;;;30.25;20.35;;;;;;;5.50;63.87;99677.81;113626;1199;64305;-78
2021/04/24 04:54:59;;;;;;;34.03;22.17;;;;;;;5.59;63.88;99677.50;113632;1199;64442;-79
2021/04/24 04:57:26;;;;;;;35.13;23.20;;;;;;;5.72;64.00;99681.43;113502;1200;64350;-79
2021/04/24 04:59:53;;;;;;;31.40;22.00;;;;;;;5.85;63.86;99686.28;113607;1200;64487;-78
2021/04/24 05:02:19;;;;;;;32.23;21.97;;;;;;;6.00;63.60;99691.02;113633;1199;64457;-79
2021/04/24 05:04:46;;;;;;;30.60;22.93;;;;;;;6.11;63.44;99699.44;113605;1199;64352;-79
2021/04/24 05:07:13;;;;;;;33.25;22.85;;;;;;;6.23;63.27;99698.11;113630;1200;64416;-79
2021/04/24 05:09:39;;;;;;;33.03;22.30;;;;;;;6.40;63.28;99700.13;113500;1199;64867;-79
2021/04/24 05:12:07;;;;;;;36.53;24.37;;;;;;;6.54;63.12;99705.73;113600;1200;64375;-79
2021/04/24 05:14:35;;;;;;;27.40;20.13;;;;;;;6.64;62.93;99705.39;113613;1200;64304;-79
2021/04/24 05:17:04;;;;;;;31.73;23.50;;;;;;;6.77;62.82;99702.19;113639;1200;64400;-79
2021/04/24 05:19:31;;;;;;;29.60;20.15;;;;;;;7.14;62.44;99703.34;113523;1200;64378;-79
2021/04/24 05:21:58;;;;;;;27.50;15.07;;;;;;;7.66;61.56;99698.47;113482;1199;64465;-79
2021/04/24 05:24:25;;;;;;;18.80;13.30;;;;;;;7.55;61.53;99702.50;113597;1200;64302;-79
2021/04/24 05:26:52;;;;;;;20.40;13.03;;;;;;;8.10;60.57;99706.22;113598;1200;64372;-79
2021/04/24 05:29:19;;;;;;;23.77;13.60;;;;;;;8.57;59.71;99719.13;113643;1200;64368;-80
2021/04/24 05:31:46;;;;;;;22.97;14.63;;;;;;;8.33;60.01;99709.63;113656;1199;64368;-81
2021/04/24 05:34:13;;;;;;;29.65;15.35;;;;;;;8.20;60.04;99706.67;113643;1200;64414;-79
2021/04/24 05:36:40;;;;;;;24.60;15.90;;;;;;;8.28;59.68;99703.67;113673;1200;64423;-80
2021/04/24 05:39:08;;;;;;;24.90;16.67;;;;;;;8.69;59.48;99700.88;113632;1200;64378;-81
2021/04/24 05:41:36;;;;;;;25.20;15.90;;;;;;;9.24;58.13;99695.52;113765;1200;64391;-83
2021/04/24 05:44:03;;;;;;;26.95;16.95;;;;;;;9.63;57.62;99692.62;113670;1200;64343;-79
2021/04/24 05:46:30;;;;;;;24.70;16.87;;;;;;;10.05;57.18;99688.63;113558;1199;64430;-79
2021/04/24 05:48:57;;;;;;;21.57;14.40;;;;;;;10.42;56.35;99689.33;113615;1199;64538;-81
2021/04/24 05:51:25;;;;;;;20.63;13.90;;;;;;;10.71;55.94;99681.52;113605;1199;64398;-79
2021/04/24 05:53:53;;;;;;;21.23;15.00;;;;;;;10.88;55.31;99676.09;113536;1200;64406;-79
2021/04/24 05:56:21;;;;;;;18.20;13.95;;;;;;;11.09;55.03;99682.00;113485;1199;64355;-79
2021/04/24 05:58:49;;;;;;;17.90;12.60;;;;;;;11.35;54.37;99677.81;113519;1200;64375;-78
2021/04/24 06:01:16;;;;;;;19.10;11.75;;;;;;;11.39;53.42;99676.66;113504;1200;64452;-80
2021/04/24 06:03:42;;;;;;;14.73;11.83;;;;;;;11.46;52.78;99678.98;113506;1199;64765;-79
2021/04/24 06:06:09;;;;;;;19.37;12.37;;;;;;;11.56;53.14;99670.33;113525;1200;64464;-78
2021/04/24 06:08:36;;;;;;;20.90;13.05;;;;;;;11.80;53.05;99656.45;113506;1200;64352;-80
2021/04/24 06:11:03;;;;;;;15.37;10.47;;;;;;;12.02;51.71;99664.02;113520;1199;64362;-79
2021/04/24 06:13:30;;;;;;;20.13;11.97;;;;;;;11.99;50.96;99661.53;113669;1200;64515;-79
2021/04/24 06:15:57;;;;;;;18.43;12.70;;;;;;;11.90;51.17;99657.63;113569;1200;64308;-80
2021/04/24 06:18:24;;;;;;;18.67;12.87;;;;;;;11.91;51.35;99654.00;113508;1200;64432;-78
2021/04/24 06:20:50;;;;;;;17.67;12.23;;;;;;;11.96;50.74;99661.73;113540;1199;64298;-78
2021/04/24 06:23:17;;;;;;;14.77;11.13;;;;;;;12.01;50.58;99656.97;113466;1199;64458;-78
2021/04/24 06:25:44;;;;;;;16.00;11.20;;;;;;;11.97;50.26;99653.61;113485;1200;64528;-78
2021/04/24 06:28:11;;;;;;;16.80;11.40;;;;;;;12.01;49.82;99647.13;113500;1199;64407;-79
2021/04/24 06:30:38;;;;;;;14.67;10.30;;;;;;;12.11;49.18;99659.90;113565;1200;64362;-78
2021/04/24 06:33:05;;;;;;;15.30;9.80;;;;;;;12.08;48.98;99656.48;113541;1200;64487;-79
2021/04/24 06:35:32;;;;;;;12.27;9.10;;;;;;;12.17;48.99;99670.22;113586;1199;64387;-79
2021/04/24 06:38:00;;;;;;;16.63;9.73;;;;;;;12.18;48.82;99656.75;113589;1200;64519;-79
2021/04/24 06:40:27;;;;;;;14.80;8.40;;;;;;;12.23;47.49;99667.16;113581;1199;64346;-80
2021/04/24 06:42:54;;;;;;;13.20;7.00;;;;;;;12.01;45.77;99679.19;113626;1200;64375;-79
2021/04/24 06:45:22;;;;;;;10.95;8.55;;;;;;;11.85;47.69;99676.57;113649;1200;64362;-80
2021/04/24 06:47:50;;;;;;;11.95;7.80;;;;;;;11.95;47.74;99666.19;113689;1199;64449;-80
2021/04/24 06:50:19;;;;;;;;;;;;;;;12.07;47.83;99680.61;113662;1206;64448;-83
2021/04/24 06:52:46;;;;;;;11.07;9.07;;;;;;;12.03;47.45;99665.72;113677;1200;64385;-82
2021/04/24 06:55:16;;;;;;;9.60;7.00;;;;;;;11.78;47.64;99661.02;113756;1200;64308;-80
2021/04/24 06:57:45;;;;;;;12.30;7.00;;;;;;;11.54;48.32;99661.55;113767;1200;64380;-80
2021/04/24 07:00:15;;;;;;;11.07;7.37;;;;;;;11.29;47.73;99664.81;113707;1199;64554;-78
2021/04/24 07:02:45;;;;;;;10.60;6.67;;;;;;;11.12;46.82;99663.14;113712;1200;64356;-79
2021/04/24 07:05:13;;;;;;;12.20;6.67;;;;;;;10.91;48.08;99657.25;113597;1200;64387;-79
2021/04/24 07:07:41;;;;;;;11.03;6.27;;;;;;;10.84;48.25;99661.20;113648;1200;64773;-79
2021/04/24 07:10:10;;;;;;;10.63;6.73;;;;;;;10.74;47.98;99663.56;113619;1200;64356;-79
2021/04/24 07:12:36;;;;;;;12.10;6.97;;;;;;;10.60;48.00;99657.28;113607;1200;64375;-78
2021/04/24 07:15:05;;;;;;;13.47;6.70;;;;;;;10.51;48.01;99658.67;113525;1199;64409;-78
2021/04/24 07:17:32;;;;;;;12.90;7.50;;;;;;;10.45;48.27;99659.88;113526;1199;64494;-78
2021/04/24 07:19:58;;;;;;;14.07;7.87;;;;;;;10.40;48.93;99658.38;113529;1199;64366;-78
2021/04/24 07:22:25;;;;;;;12.77;7.73;;;;;;;10.43;49.33;99660.91;113499;1199;64812;-78
2021/04/24 07:24:52;;;;;;;11.25;6.35;;;;;;;10.44;48.70;99659.95;113511;1199;64574;-79
2021/04/24 07:27:18;;;;;;;11.27;7.67;;;;;;;10.41;49.44;99652.98;113489;1199;64509;-79
2021/04/24 07:29:45;;;;;;;10.60;6.80;;;;;;;10.49;48.57;99657.89;113532;1200;65977;-79
2021/04/24 07:32:11;;;;;;;13.43;7.47;;;;;;;10.41;48.70;99665.45;113500;1200;64343;-79
2021/04/24 07:34:38;;;;;;;12.77;7.87;;;;;;;10.39;49.59;99664.67;113526;1200;64474;-79
2021/04/24 07:37:05;;;;;;;13.00;7.20;;;;;;;10.48;49.60;99658.84;113581;1200;64519;-78
2021/04/24 07:39:32;;;;;;;11.10;7.03;;;;;;;10.58;49.44;99665.34;113587;1200;65798;-78
2021/04/24 07:41:58;;;;;;;12.80;7.97;;;;;;;10.53;48.81;99657.64;113528;1199;64423;-79
2021/04/24 07:44:25;;;;;;;18.67;8.97;;;;;;;10.54;49.44;99654.02;113464;1200;64349;-79
2021/04/24 07:46:53;;;;;;;11.30;8.00;;;;;;;10.60;49.30;99657.28;113532;1200;64372;-79
2021/04/24 07:49:20;;;;;;;11.60;8.00;;;;;;;10.50;48.91;99663.11;113495;1200;64381;-78
2021/04/24 07:51:47;;;;;;;15.25;8.75;;;;;;;10.52;49.96;99655.90;113574;1200;64356;-78
2021/04/24 07:54:15;;;;;;;13.33;8.47;;;;;;;10.68;50.53;99653.22;113594;1200;64427;-79
2021/04/24 07:56:43;;;;;;;10.37;8.07;;;;;;;10.75;50.52;99654.60;113539;1200;64368;-78
2021/04/24 07:59:11;;;;;;;15.60;8.27;;;;;;;10.83;51.04;99656.83;113621;1200;64411;-78
2021/04/24 08:01:40;;;;;;;16.10;9.30;;;;;;;10.89;50.48;99653.80;113490;1199;64585;-78
2021/04/24 08:04:09;;;;;;;15.07;8.90;;;;;;;10.90;50.25;99654.66;113512;1199;64512;-78
2021/04/24 08:06:36;;;;;;;12.83;8.33;;;;;;;11.04;50.52;99649.40;113507;1199;64353;-79
2021/04/24 08:09:04;;;;;;;13.10;8.80;;;;;;;11.24;51.04;99652.69;113494;1199;64448;-78
2021/04/24 08:11:32;;;;;;;15.70;9.20;;;;;;;11.38;50.35;99652.75;113482;1199;64359;-78
2021/04/24 08:13:59;;;;;;;13.07;8.47;;;;;;;11.46;50.02;99644.28;113510;1200;64524;-78
2021/04/24 08:16:25;;;;;;;14.40;9.25;;;;;;;11.53;50.32;99645.61;113522;1199;64528;-79
2021/04/24 08:18:52;;;;;;;12.17;8.13;;;;;;;11.69;50.48;99635.74;113554;1199;64371;-79
2021/04/24 08:21:20;;;;;;;15.50;9.67;;;;;;;11.78;50.42;99643.17;113631;1200;64353;-80
2021/04/24 08:23:46;;;;;;;16.70;10.20;;;;;;;11.90;50.66;99636.27;113690;1200;64417;-80
2021/04/24 08:26:14;;;;;;;13.30;9.40;;;;;;;11.95;50.11;99639.48;113634;1199;64346;-81
2021/04/24 08:28:40;;;;;;;15.60;9.30;;;;;;;11.88;49.25;99646.17;113601;1199;64449;-80
2021/04/24 08:31:07;;;;;;;15.70;9.40;;;;;;;11.99;49.67;99645.51;113628;1200;64490;-79
2021/04/24 08:33:34;;;;;;;13.50;8.37;;;;;;;12.13;49.54;99640.14;113669;1200;64464;-79
2021/04/24 08:36:00;;;;;;;13.20;9.37;;;;;;;12.44;48.88;99625.69;113652;1199;64378;-81
2021/04/24 08:38:27;;;;;;;16.85;9.90;;;;;;;12.56;49.09;99636.54;113525;1200;64446;-80
2021/04/24 08:40:54;;;;;;;14.27;8.47;;;;;;;12.70;48.62;99632.02;113513;1200;64455;-79
2021/04/24 08:43:24;;;;;;;11.10;8.03;;;;;;;12.95;48.34;99636.63;113625;1199;64715;-78
2021/04/24 08:45:53;;;;;;;14.00;9.05;;;;;;;12.96;48.03;99637.47;113566;1199;64352;-79
2021/04/24 08:48:21;;;;;;;12.05;8.13;;;;;;;12.93;47.66;99625.16;113613;1199;64308;-79
2021/04/24 08:50:48;;;;;;;13.80;8.45;;;;;;;12.89;47.74;99626.30;113485;1200;64439;-79
2021/04/24 08:53:18;;;;;;;14.65;8.05;;;;;;;13.07;48.34;99618.88;113494;1200;64446;-80
2021/04/24 08:55:45;;;;;;;13.20;8.70;;;;;;;13.06;47.19;99619.84;113578;1200;64416;-78
2021/04/24 08:58:11;;;;;;;11.47;8.07;;;;;;;12.86;46.88;99626.52;113564;1200;64311;-80
2021/04/24 09:00:41;;;;;;;12.30;8.00;;;;;;;12.71;46.86;99620.34;113599;1199;64477;-79
2021/04/24 09:03:10;;;;;;;10.10;6.80;;;;;;;12.62;46.68;99620.12;113629;1200;64362;-79
2021/04/24 09:05:39;;;;;;;12.43;7.40;;;;;;;12.52;46.77;99619.84;113645;1199;64378;-80
2021/04/24 09:08:08;;;;;;;11.50;6.85;;;;;;;12.49;45.75;99625.40;113524;1200;64436;-80
2021/04/24 09:10:38;;;;;;;;;;;;;;;12.40;44.57;99623.30;113591;1206;64313;-79
2021/04/24 09:13:06;;;;;;;10.50;6.80;;;;;;;12.30;44.93;99620.39;113594;1200;64321;-79
2021/04/24 09:15:34;;;;;;;9.85;6.80;;;;;;;12.36;44.94;99617.31;113563;1200;64372;-79
2021/04/24 09:18:04;;;;;;;11.77;7.07;;;;;;;12.68;45.76;99604.52;113606;1199;64525;-79
2021/04/24 09:20:43;;;;;;;11.93;7.10;;;;;;;13.11;46.55;99601.66;113516;1200;64835;-79
2021/04/24 09:23:12;;;;;;;10.65;6.85;;;;;;;13.23;45.42;99605.31;113578;1200;64369;-79
2021/04/24 09:25:43;;;;;;;11.50;7.15;;;;;;;13.02;44.33;99602.27;113636;1200;64400;-79
2021/04/24 09:28:12;;;;;;;11.77;6.90;;;;;;;12.78;43.62;99612.80;113548;1199;64372;-79
2021/04/24 09:30:41;;;;;;;15.85;8.08;;;;;;;12.59;44.08;99610.48;113524;1200;64436;-79
2021/04/24 09:33:13;;;;;;;13.45;7.40;;;;;;;12.47;43.85;99608.59;113477;1200;64378;-79
2021/04/24 09:35:53;;;;;;;9.45;6.50;;;;;;;12.44;43.08;99603.45;113511;1200;64298;-79
2021/04/24 09:38:24;;;;;;;11.88;6.30;;;;;;;12.57;43.03;99603.52;113523;1199;64522;-79
2021/04/24 09:41:09;;;;;;;8.57;5.83;;;;;;;12.99;41.69;99596.28;113513;1200;64400;-79
2021/04/24 09:44:07;;;;;;;14.60;6.23;;;;;;;13.43;41.55;99593.28;113554;1200;64411;-79
2021/04/24 09:46:50;;;;;;;11.15;5.70;;;;;;;13.54;41.28;99588.03;113530;1199;64330;-78
2021/04/24 09:49:31;;;;;;;8.27;5.13;;;;;;;13.44;41.96;99589.63;113553;1200;64452;-78
2021/04/24 09:52:07;;;;;;;10.15;6.30;;;;;;;13.30;41.03;99584.38;113598;1200;64378;-78
2021/04/24 09:54:33;;;;;;;8.83;5.70;;;;;;;13.05;41.37;99588.68;113538;1200;64407;-78
2021/04/24 09:57:01;;;;;;;43.90;9.20;;;;;;;12.87;41.95;99589.92;113599;1199;64554;-78
2021/04/24 09:59:29;;;;;;;9.53;5.50;;;;;;;12.66;40.64;99592.20;113639;1199;64388;-78
2021/04/24 10:02:07;;;;;;;7.83;5.43;;;;;;;12.45;40.22;99592.67;113637;1199;64305;-78
2021/04/24 10:04:33;;;;;;;7.80;5.33;;;;;;;12.34;40.43;99592.48;113642;1200;64474;-78
2021/04/24 10:07:00;;;;;;;8.25;5.00;;;;;;;12.28;40.09;99583.05;113583;1200;64844;-79
2021/04/24 10:09:30;;;;;;;6.60;5.30;;;;;;;12.32;40.35;99585.52;113479;1199;64506;-79
2021/04/24 10:12:00;;;;;;;9.13;5.60;;;;;;;12.47;40.33;99577.36;113507;1200;64362;-78
2021/04/24 10:14:28;;;;;;;6.93;4.75;;;;;;;12.62;41.56;99574.66;113512;1200;64470;-80
2021/04/24 10:16:56;;;;;;;6.85;5.20;;;;;;;12.72;39.71;99567.74;113619;1199;64395;-78
2021/04/24 10:19:25;;;;;;;11.50;5.60;;;;;;;12.72;39.47;99563.25;113620;1200;64464;-78
2021/04/24 10:21:52;;;;;;;11.33;4.47;;;;;;;12.72;39.77;99567.74;113667;1200;64301;-78
2021/04/24 10:24:19;;;;;;;6.87;4.47;;;;;;;12.74;39.28;99563.13;113628;1200;64343;-78
2021/04/24 10:26:46;;;;;;;6.80;4.20;;;;;;;12.71;38.99;99558.84;113559;1200;64222;-79
2021/04/24 10:29:12;;;;;;;6.55;3.80;;;;;;;12.64;39.14;99562.91;113511;1199;64410;-79
2021/04/24 10:31:39;;;;;;;7.50;3.87;;;;;;;12.67;39.05;99564.52;113630;1200;64525;-79
2021/04/24 10:34:07;;;;;;;6.15;4.00;;;;;;;12.60;38.27;99566.72;113569;1200;64394;-79
2021/04/24 10:36:36;;;;;;;5.95;4.75;;;;;;;12.52;39.13;99558.36;113604;1199;64375;-79
2021/04/24 10:39:09;;;;;;;6.05;4.40;;;;;;;12.59;38.83;99564.17;113592;1200;64365;-79
2021/04/24 10:41:46;;;;;;;6.73;4.00;;;;;;;12.91;38.11;99546.81;113562;1200;64308;-79
2021/04/24 10:44:15;;;;;;;7.90;4.40;;;;;;;13.46;39.56;99539.52;113458;1200;64394;-78
2021/04/24 10:46:46;;;;;;;7.80;4.40;;;;;;;13.64;38.43;99545.40;113526;1199;64547;-78
2021/04/24 10:49:17;;;;;;;9.90;4.70;;;;;;;13.68;38.93;99533.48;113574;1199;64327;-78
2021/04/24 10:51:59;;;;;;;7.80;4.30;;;;;;;13.72;38.56;99539.50;113629;1200;64378;-78
2021/04/24 10:54:28;;;;;;;8.03;3.60;;;;;;;13.64;37.72;99534.69;113618;1200;64854;-79
2021/04/24 10:56:55;;;;;;;8.10;3.90;;;;;;;13.54;37.17;99531.80;113631;1200;64320;-79
2021/04/24 10:59:31;;;;;;;5.57;3.00;;;;;;;13.48;35.56;99534.91;113510;1200;64426;-78
2021/04/24 11:02:06;;;;;;;6.00;3.03;;;;;;;13.40;35.91;99523.86;113576;1200;64346;-79
2021/04/24 11:04:50;;;;;;;9.50;3.40;;;;;;;13.42;36.24;99535.32;113625;1200;64330;-78
2021/04/24 11:07:18;;;;;;;6.57;3.40;;;;;;;13.41;35.69;99528.27;113639;1200;64353;-80
2021/04/24 11:10:04;;;;;;;6.95;3.10;;;;;;;13.45;36.22;99529.75;113573;1199;64352;-78
2021/04/24 11:12:32;;;;;;;4.77;3.07;;;;;;;13.50;36.58;99524.92;113637;1200;64972;-80
2021/04/24 11:15:01;;;;;;;7.20;3.55;;;;;;;13.47;35.70;99526.98;113623;1200;64410;-79
2021/04/24 11:17:33;;;;;;;7.23;3.35;;;;;;;13.37;34.72;99519.57;113661;1200;64349;-79
2021/04/24 11:20:03;;;;;;;4.00;3.10;;;;;;;13.32;33.86;99524.42;113678;1200;64372;-80
2021/04/24 11:22:36;;;;;;;;;;;;;;;13.35;34.69;99524.20;113685;1206;64448;-80
2021/04/24 11:25:44;;;;;;;5.70;3.57;;;;;;;13.49;35.46;99522.38;113558;1199;64622;-79